KAGS

Augusta Regional at Bush Field Airport

Augusta, Georgia, USA
METAR KAGS 181553Z 05015G19KT 10SM CLR 21/07 A3036 RMK AO2 SLP281 T02110067
Observed Flight Rules
Oct-18 @ 15:53 UTC (57 minutes ago) Visual Flight Rules
Wind Visibility Clouds
50° at 15 knots
 Gusting to 19 knots
10 miles
  • Clear skies
Temperatures Readings
Current 21°C / 70°F
Dewpoint 7°C / 45°F
Humidity 40%
Altimeter 30.36" Hg
Pressure 1028.1 hPa
Elevation 44
METAR KAGS 181553Z 05015G19KT 10SM CLR 21/07 A3036 RMK AO2 SLP281 T02110067
Observed Flight Rules
Oct-18 @ 15:53 UTC
(57 minutes ago)
VFR
Wind Visibility
50° at 15 knots
 Gusting to 19 knots
10 miles
Clouds
  • Clear skies
Temperature Dewpoint
21°C / 70°F 7°C / 45°F
Humidity Altimeter Pressure
40% 30.36" Hg 1028.1 hPa